createdAt,value
2023-03-26T00:01:49.759Z,80.75
2023-03-26T00:04:19.929Z,80.39
2023-03-26T00:06:49.256Z,81.07
2023-03-26T00:09:18.886Z,81.55
2023-03-26T00:11:47.738Z,80.76
2023-03-26T00:14:17.924Z,81.13
2023-03-26T00:16:49.386Z,80.67
2023-03-26T00:19:17.913Z,81.04
2023-03-26T00:21:48.457Z,80.33
2023-03-26T00:24:17.525Z,80.67
2023-03-26T00:26:53.149Z,79.91
2023-03-26T00:29:22.997Z,80.18
2023-03-26T00:31:53.145Z,80.33
2023-03-26T00:34:23.010Z,80.44
2023-03-26T00:36:54.568Z,80.11
2023-03-26T00:39:24.106Z,79.90
2023-03-26T00:41:54.715Z,80.18
2023-03-26T00:44:23.672Z,80.00
2023-03-26T00:46:53.773Z,80.71
2023-03-26T00:49:23.021Z,81.48
2023-03-26T00:51:51.457Z,82.73
2023-03-26T00:54:20.844Z,83.09
2023-03-26T00:56:49.233Z,83.53
2023-03-26T00:59:17.905Z,83.44
2023-03-26T01:01:47.086Z,83.13
2023-03-26T01:04:31.622Z,82.40
2023-03-26T01:07:04.017Z,83.10
2023-03-26T01:09:36.889Z,82.91
2023-03-26T01:12:09.937Z,82.75
2023-03-26T01:14:39.881Z,82.21
2023-03-26T01:17:09.455Z,81.44
2023-03-26T01:19:51.070Z,81.75
2023-03-26T01:22:22.095Z,82.26
2023-03-26T01:24:56.255Z,82.76
2023-03-26T01:27:38.926Z,81.76
2023-03-26T01:30:17.448Z,82.09
2023-03-26T01:33:04.463Z,81.85
2023-03-26T01:35:46.900Z,82.68
2023-03-26T01:38:28.377Z,83.04
2023-03-26T01:41:05.025Z,82.42
2023-03-26T01:43:40.836Z,82.18
2023-03-26T01:46:12.916Z,81.77
2023-03-26T01:48:44.351Z,81.51
2023-03-26T01:51:15.559Z,81.79
2023-03-26T01:53:48.722Z,81.71
2023-03-26T01:56:26.963Z,81.74
2023-03-26T01:59:26.453Z,81.41
2023-03-26T02:02:05.003Z,81.64
2023-03-26T02:04:42.839Z,81.20
2023-03-26T02:07:21.020Z,80.96
2023-03-26T02:09:55.446Z,80.41
2023-03-26T02:12:26.645Z,80.61
2023-03-26T02:14:55.384Z,80.43
2023-03-26T02:17:24.866Z,80.62
2023-03-26T02:19:54.556Z,81.14
2023-03-26T02:22:29.817Z,81.07
2023-03-26T02:24:59.581Z,80.94
2023-03-26T02:27:29.336Z,80.45
2023-03-26T02:29:57.887Z,80.58
2023-03-26T02:32:28.779Z,80.50
2023-03-26T02:34:57.716Z,80.26
2023-03-26T02:37:26.377Z,80.66
2023-03-26T02:40:06.320Z,80.41
2023-03-26T02:42:36.150Z,80.43
2023-03-26T02:45:05.679Z,80.85
2023-03-26T02:47:52.636Z,80.54
2023-03-26T02:50:50.394Z,80.32
2023-03-26T02:53:41.369Z,80.40
2023-03-26T02:56:25.465Z,80.50
2023-03-26T02:59:18.973Z,80.03
2023-03-26T03:01:52.088Z,80.06
2023-03-26T03:04:21.916Z,79.76
2023-03-26T03:06:57.823Z,79.11
2023-03-26T03:09:27.713Z,79.23
2023-03-26T03:12:21.765Z,78.67
2023-03-26T03:14:51.535Z,78.63
2023-03-26T03:17:20.910Z,78.45
2023-03-26T03:19:49.524Z,78.06
2023-03-26T03:22:18.044Z,78.26
2023-03-26T03:24:48.697Z,78.31
2023-03-26T03:27:18.008Z,78.41
2023-03-26T03:29:55.862Z,78.06
2023-03-26T03:32:42.752Z,78.47
2023-03-26T03:35:12.017Z,78.45
2023-03-26T03:37:42.335Z,78.53
2023-03-26T03:40:12.589Z,78.71
2023-03-26T03:42:41.500Z,78.35
2023-03-26T03:45:14.074Z,78.75
2023-03-26T03:48:01.227Z,78.40
2023-03-26T03:50:38.621Z,78.47
2023-03-26T03:53:29.163Z,78.31
2023-03-26T03:56:02.092Z,78.42
2023-03-26T03:58:51.609Z,78.43
2023-03-26T04:01:30.963Z,78.44
2023-03-26T04:04:05.045Z,78.51
2023-03-26T04:06:52.187Z,78.40
2023-03-26T04:09:21.445Z,78.45
2023-03-26T04:11:52.043Z,78.30
2023-03-26T04:14:40.692Z,78.11
2023-03-26T04:17:31.464Z,78.00
2023-03-26T04:20:07.277Z,78.17
2023-03-26T04:22:36.580Z,78.31
2023-03-26T04:25:09.323Z,78.27
2023-03-26T04:28:01.424Z,78.27
2023-03-26T04:31:04.226Z,78.09
2023-03-26T04:33:40.211Z,78.20
2023-03-26T04:36:11.643Z,78.46
2023-03-26T04:38:44.717Z,78.23
2023-03-26T04:41:15.579Z,77.77
2023-03-26T04:44:02.075Z,78.48
2023-03-26T04:46:50.198Z,78.19
2023-03-26T04:49:29.273Z,78.38
2023-03-26T04:51:57.879Z,78.30
2023-03-26T04:55:02.160Z,77.87
2023-03-26T04:57:37.118Z,77.85
2023-03-26T05:00:16.451Z,77.82
2023-03-26T05:02:50.437Z,77.70
2023-03-26T05:05:21.539Z,78.05
2023-03-26T05:07:51.513Z,77.87
2023-03-26T05:10:22.134Z,77.72
2023-03-26T05:13:04.794Z,77.75
2023-03-26T05:15:37.047Z,77.91
2023-03-26T05:18:17.911Z,77.98
2023-03-26T05:20:53.323Z,77.55
2023-03-26T05:23:22.032Z,77.67
2023-03-26T05:26:12.745Z,77.28
2023-03-26T05:28:41.976Z,77.44
2023-03-26T05:31:22.304Z,77.65
2023-03-26T05:33:55.071Z,77.41
2023-03-26T05:36:26.031Z,77.05
2023-03-26T05:39:05.973Z,77.46
2023-03-26T05:42:07.859Z,77.66
2023-03-26T05:44:56.542Z,77.61
2023-03-26T05:47:29.103Z,77.76
2023-03-26T05:49:58.959Z,77.53
2023-03-26T05:52:29.374Z,77.70
2023-03-26T05:55:30.005Z,78.16
2023-03-26T05:58:17.547Z,77.98
2023-03-26T06:00:59.516Z,78.32
2023-03-26T06:03:40.189Z,77.93
2023-03-26T06:06:18.713Z,78.39
2023-03-26T06:09:02.061Z,77.96
2023-03-26T06:11:32.935Z,77.98
2023-03-26T06:14:02.785Z,78.64
2023-03-26T06:16:31.918Z,78.94
2023-03-26T06:19:13.424Z,78.62
2023-03-26T06:21:51.312Z,78.83
2023-03-26T06:24:24.892Z,78.74
2023-03-26T06:27:14.228Z,79.47
2023-03-26T06:30:00.946Z,79.39
2023-03-26T06:32:56.055Z,79.30
2023-03-26T06:35:29.981Z,79.18
2023-03-26T06:37:58.837Z,79.24
2023-03-26T06:40:29.017Z,79.12
2023-03-26T06:43:11.091Z,78.81
2023-03-26T06:46:02.968Z,79.34
2023-03-26T06:48:49.502Z,79.27
2023-03-26T06:51:30.248Z,79.39
2023-03-26T06:54:17.527Z,79.37
2023-03-26T06:57:06.234Z,79.25
2023-03-26T06:59:53.400Z,79.35
2023-03-26T07:02:40.445Z,78.98
2023-03-26T07:05:27.848Z,79.08
2023-03-26T07:08:14.789Z,78.60
2023-03-26T07:11:02.053Z,78.79
2023-03-26T07:13:38.523Z,78.95
2023-03-26T07:16:29.837Z,78.72
2023-03-26T07:19:34.191Z,78.58
2023-03-26T07:22:03.936Z,78.56
2023-03-26T07:24:52.276Z,78.49
2023-03-26T07:27:55.106Z,78.16
2023-03-26T07:31:12.695Z,78.15
2023-03-26T07:33:58.789Z,77.93
2023-03-26T07:36:48.957Z,78.08
2023-03-26T07:39:53.452Z,77.94
2023-03-26T07:42:47.177Z,77.98
2023-03-26T07:45:51.423Z,78.37
2023-03-26T07:48:33.903Z,78.40
2023-03-26T07:51:27.960Z,78.26
2023-03-26T07:54:29.572Z,78.33
2023-03-26T07:57:02.873Z,78.08
2023-03-26T07:59:41.508Z,78.40
2023-03-26T08:02:50.518Z,78.48
2023-03-26T08:05:58.538Z,78.34
2023-03-26T08:08:47.983Z,78.04
2023-03-26T08:11:54.413Z,77.76
2023-03-26T08:14:40.955Z,78.22
2023-03-26T08:17:14.357Z,77.78
2023-03-26T08:19:58.159Z,77.64
2023-03-26T08:22:34.377Z,78.04
2023-03-26T08:25:20.959Z,77.65
2023-03-26T08:28:04.714Z,77.68
2023-03-26T08:30:33.456Z,77.56
2023-03-26T08:33:14.048Z,77.67
2023-03-26T08:35:42.869Z,77.48
2023-03-26T08:38:13.970Z,77.37
2023-03-26T08:41:25.568Z,77.41
2023-03-26T08:45:11.990Z,77.53
2023-03-26T08:48:59.159Z,77.13
2023-03-26T08:52:17.005Z,77.29
2023-03-26T08:55:20.715Z,77.39
2023-03-26T08:58:24.174Z,77.18
2023-03-26T09:01:24.435Z,76.93
2023-03-26T09:04:42.510Z,77.32
2023-03-26T09:07:56.498Z,77.24
2023-03-26T09:10:56.953Z,76.90
2023-03-26T09:14:18.424Z,76.57
2023-03-26T09:17:38.696Z,76.38
2023-03-26T09:21:11.652Z,76.16
2023-03-26T09:24:25.469Z,75.92
2023-03-26T09:27:11.076Z,76.22
2023-03-26T09:30:45.579Z,76.88
2023-03-26T09:33:56.566Z,76.79
2023-03-26T09:36:59.980Z,76.86
2023-03-26T09:39:40.235Z,77.17
2023-03-26T09:42:25.117Z,77.42
2023-03-26T09:45:28.101Z,77.09
2023-03-26T09:48:47.531Z,76.61
2023-03-26T09:51:45.841Z,76.66
2023-03-26T09:54:46.501Z,77.12
2023-03-26T09:57:35.309Z,77.38
2023-03-26T10:00:25.634Z,77.37
2023-03-26T10:03:31.652Z,76.76
2023-03-26T10:06:19.976Z,76.53
2023-03-26T10:09:06.281Z,75.99
2023-03-26T10:12:05.976Z,75.69
2023-03-26T10:14:41.698Z,75.25
2023-03-26T10:17:35.793Z,74.60
2023-03-26T10:20:28.737Z,74.10
2023-03-26T10:23:13.071Z,73.93
2023-03-26T10:26:04.380Z,73.75
2023-03-26T10:28:56.855Z,74.18
2023-03-26T10:31:48.683Z,74.25
2023-03-26T10:34:42.646Z,74.04
2023-03-26T10:37:19.918Z,73.72
2023-03-26T10:40:09.885Z,73.29
2023-03-26T10:43:33.391Z,73.07
2023-03-26T10:46:37.576Z,73.50
2023-03-26T10:49:39.863Z,73.36
2023-03-26T10:52:12.032Z,73.63
2023-03-26T10:54:54.844Z,73.60
2023-03-26T10:57:40.203Z,73.59
2023-03-26T11:00:23.346Z,73.11
2023-03-26T11:03:22.101Z,73.21
2023-03-26T11:06:02.762Z,73.68
2023-03-26T11:08:38.500Z,73.50
2023-03-26T11:11:21.500Z,73.31
2023-03-26T11:14:02.023Z,72.20
2023-03-26T11:16:44.300Z,72.14
2023-03-26T11:19:22.964Z,71.81
2023-03-26T11:22:02.560Z,71.60
2023-03-26T11:25:36.552Z,71.45
2023-03-26T11:28:20.230Z,70.03
2023-03-26T11:30:56.514Z,71.07
2023-03-26T11:33:32.889Z,71.33
2023-03-26T11:36:07.518Z,71.74
2023-03-26T11:38:43.855Z,70.95
2023-03-26T11:41:23.590Z,70.15
2023-03-26T11:44:22.522Z,70.46
2023-03-26T11:46:59.000Z,72.12
2023-03-26T11:49:29.457Z,72.71
2023-03-26T11:51:59.256Z,72.47
2023-03-26T11:54:29.104Z,71.91
2023-03-26T11:57:07.352Z,71.53
2023-03-26T11:59:53.078Z,72.23
2023-03-26T12:02:32.489Z,71.96
2023-03-26T12:05:29.485Z,72.22
2023-03-26T12:07:59.861Z,72.58
2023-03-26T12:10:34.880Z,72.68
2023-03-26T12:13:17.813Z,74.06
2023-03-26T12:15:46.346Z,72.83
2023-03-26T12:18:26.949Z,74.15
2023-03-26T12:21:08.952Z,72.82
2023-03-26T12:23:57.235Z,73.62
2023-03-26T12:26:41.437Z,72.14
2023-03-26T12:29:13.207Z,74.11
2023-03-26T12:31:55.803Z,74.68
2023-03-26T12:34:30.786Z,74.60
2023-03-26T12:37:01.165Z,74.67
2023-03-26T12:40:07.822Z,76.13
2023-03-26T12:44:46.699Z,74.74
2023-03-26T12:45:29.892Z,73.46
2023-03-26T12:48:03.966Z,73.22
2023-03-26T12:50:55.250Z,73.83
2023-03-26T12:54:06.325Z,73.45
2023-03-26T12:56:44.437Z,74.41
2023-03-26T12:59:43.700Z,76.75
2023-03-26T13:02:49.701Z,77.63
2023-03-26T13:05:44.472Z,77.34
2023-03-26T13:08:46.563Z,77.08
2023-03-26T13:11:25.819Z,77.45
2023-03-26T13:14:10.629Z,77.30
2023-03-26T13:16:47.869Z,76.08
2023-03-26T13:19:22.241Z,76.61
2023-03-26T13:22:05.743Z,76.54
2023-03-26T13:24:50.122Z,76.17
2023-03-26T13:27:29.983Z,76.11
2023-03-26T13:30:12.839Z,76.43
2023-03-26T13:33:01.426Z,76.84
2023-03-26T13:35:38.086Z,76.03
2023-03-26T13:38:15.388Z,76.42
2023-03-26T13:40:57.842Z,77.25
2023-03-26T13:43:53.937Z,76.06
2023-03-26T13:46:34.952Z,76.11
2023-03-26T13:49:12.915Z,75.85
2023-03-26T13:51:45.862Z,76.00
2023-03-26T13:54:22.931Z,75.81
2023-03-26T13:56:58.536Z,75.63
2023-03-26T13:59:32.886Z,75.44
2023-03-26T14:02:10.881Z,73.96
2023-03-26T14:04:46.464Z,73.97
2023-03-26T14:07:23.481Z,72.70
2023-03-26T14:09:57.828Z,73.52
2023-03-26T14:12:44.658Z,73.55
2023-03-26T14:15:18.660Z,72.65
2023-03-26T14:17:55.420Z,73.46
2023-03-26T14:21:39.742Z,72.99
2023-03-26T14:24:50.220Z,71.93
2023-03-26T14:27:39.435Z,72.80
2023-03-26T14:30:56.637Z,71.98
2023-03-26T14:34:04.848Z,72.65
2023-03-26T14:37:11.086Z,73.48
2023-03-26T14:40:15.130Z,74.05
2023-03-26T14:42:55.922Z,74.12
2023-03-26T14:45:53.610Z,73.12
2023-03-26T14:49:18.835Z,72.18
2023-03-26T14:52:02.555Z,69.97
2023-03-26T14:54:36.329Z,69.21
2023-03-26T14:57:57.828Z,68.50
2023-03-26T15:01:24.613Z,67.98
2023-03-26T15:04:51.907Z,68.68
2023-03-26T15:08:09.352Z,69.13
2023-03-26T15:11:20.540Z,67.56
2023-03-26T15:14:02.976Z,68.09
2023-03-26T15:17:34.892Z,67.51
2023-03-26T15:21:00.305Z,65.13
2023-03-26T15:24:19.198Z,65.23
2023-03-26T15:27:29.252Z,65.08
2023-03-26T15:30:49.361Z,65.58
2023-03-26T15:34:01.081Z,66.14
2023-03-26T15:37:12.758Z,64.69
2023-03-26T15:40:09.744Z,63.34
2023-03-26T15:43:01.473Z,63.97
2023-03-26T15:45:38.960Z,63.02
2023-03-26T15:48:37.504Z,62.92
2023-03-26T15:51:29.753Z,63.22
2023-03-26T15:54:10.278Z,63.25
2023-03-26T15:57:17.514Z,63.79
2023-03-26T16:00:12.516Z,62.40
2023-03-26T16:02:54.007Z,63.30
2023-03-26T16:05:39.361Z,63.08
2023-03-26T16:08:22.265Z,62.93
2023-03-26T16:10:56.142Z,62.24
2023-03-26T16:13:37.824Z,61.35
2023-03-26T16:16:50.747Z,61.56
2023-03-26T16:19:52.091Z,61.66
2023-03-26T16:22:57.341Z,61.34
2023-03-26T16:25:32.776Z,61.25
2023-03-26T16:28:31.400Z,62.29
2023-03-26T16:31:37.749Z,62.12
2023-03-26T16:34:46.595Z,61.12
2023-03-26T16:37:43.746Z,61.72
2023-03-26T16:40:36.196Z,60.77
2023-03-26T16:43:44.843Z,61.70
2023-03-26T16:46:29.962Z,62.86
2023-03-26T16:49:05.478Z,63.79
2023-03-26T16:52:00.118Z,62.66
2023-03-26T16:54:41.030Z,62.77
2023-03-26T16:57:27.121Z,62.13
2023-03-26T17:00:43.989Z,62.87
2023-03-26T17:03:45.113Z,62.90
2023-03-26T17:06:53.401Z,61.95
2023-03-26T17:09:33.981Z,61.50
2023-03-26T17:12:14.387Z,61.45
2023-03-26T17:15:18.548Z,60.56
2023-03-26T17:18:14.610Z,61.24
2023-03-26T17:20:52.761Z,61.02
2023-03-26T17:23:39.751Z,59.92
2023-03-26T17:26:23.227Z,60.76
2023-03-26T17:29:21.770Z,59.95
2023-03-26T17:32:00.485Z,60.23
2023-03-26T17:35:00.719Z,60.23
2023-03-26T17:37:50.676Z,60.18
2023-03-26T17:40:52.113Z,59.98
2023-03-26T17:43:44.806Z,58.83
2023-03-26T17:46:33.744Z,59.71
2023-03-26T17:49:09.539Z,59.62
2023-03-26T17:51:48.788Z,60.36
2023-03-26T17:54:25.690Z,60.59
2023-03-26T17:56:56.334Z,61.30
2023-03-26T17:59:28.297Z,61.11
2023-03-26T18:02:00.972Z,61.87
2023-03-26T18:04:37.364Z,61.63
2023-03-26T18:07:54.010Z,63.03
2023-03-26T18:10:50.010Z,63.13
2023-03-26T18:14:25.411Z,62.99
2023-03-26T18:16:57.660Z,63.37
2023-03-26T18:19:26.592Z,63.58
2023-03-26T18:21:58.066Z,63.16
2023-03-26T18:24:31.779Z,62.69
2023-03-26T18:27:06.148Z,63.36
2023-03-26T18:29:36.248Z,63.68
2023-03-26T18:32:22.159Z,64.20
2023-03-26T18:34:57.010Z,63.81
2023-03-26T18:37:29.222Z,63.27
2023-03-26T18:40:02.529Z,63.54
2023-03-26T18:42:33.855Z,63.23
2023-03-26T18:45:10.826Z,62.58
2023-03-26T18:47:39.256Z,62.97
2023-03-26T18:50:15.922Z,61.00
2023-03-26T18:52:45.856Z,61.25
2023-03-26T18:55:16.744Z,61.71
2023-03-26T18:57:45.787Z,61.77
2023-03-26T19:00:21.804Z,60.80
2023-03-26T19:02:55.757Z,61.14
2023-03-26T19:05:24.423Z,61.56
2023-03-26T19:07:53.095Z,61.31
2023-03-26T19:10:25.279Z,61.40
2023-03-26T19:12:59.067Z,62.69
2023-03-26T19:15:31.304Z,63.22
2023-03-26T19:18:07.482Z,63.42
2023-03-26T19:20:43.371Z,63.42
2023-03-26T19:23:16.506Z,63.93
2023-03-26T19:25:48.961Z,63.42
2023-03-26T19:28:23.567Z,63.62
2023-03-26T19:30:57.991Z,64.20
2023-03-26T19:33:34.874Z,64.31
2023-03-26T19:36:06.720Z,64.59
2023-03-26T19:38:45.944Z,65.08
2023-03-26T19:41:23.325Z,65.33
2023-03-26T19:43:55.925Z,65.46
2023-03-26T19:46:25.556Z,65.26
2023-03-26T19:48:56.967Z,65.39
2023-03-26T19:51:34.229Z,65.11
2023-03-26T19:54:13.939Z,65.32
2023-03-26T19:56:43.893Z,66.21
2023-03-26T19:59:13.071Z,66.69
2023-03-26T20:01:41.698Z,66.29
2023-03-26T20:04:14.869Z,66.29
2023-03-26T20:06:44.301Z,66.04
2023-03-26T20:09:13.942Z,66.29
2023-03-26T20:11:44.035Z,66.11
2023-03-26T20:14:15.857Z,65.72
2023-03-26T20:16:45.814Z,66.17
2023-03-26T20:19:15.484Z,66.03
2023-03-26T20:21:46.092Z,66.67
2023-03-26T20:24:18.055Z,66.35
2023-03-26T20:26:48.445Z,65.52
2023-03-26T20:29:17.604Z,65.65
2023-03-26T20:31:46.379Z,65.00
2023-03-26T20:34:19.863Z,64.14
2023-03-26T20:36:54.376Z,63.02
2023-03-26T20:39:23.787Z,63.29
2023-03-26T20:41:56.232Z,63.71
2023-03-26T20:44:27.012Z,63.40
2023-03-26T20:46:56.560Z,64.31
2023-03-26T20:49:25.323Z,63.80
2023-03-26T20:51:53.946Z,64.13
2023-03-26T20:54:25.498Z,64.18
2023-03-26T20:56:55.729Z,63.99
2023-03-26T20:59:27.810Z,64.36
2023-03-26T21:01:59.216Z,63.41
2023-03-26T21:04:29.045Z,64.22
2023-03-26T21:07:07.213Z,63.63
2023-03-26T21:09:40.661Z,62.88
2023-03-26T21:12:22.967Z,62.44
2023-03-26T21:14:52.357Z,62.76
2023-03-26T21:17:25.500Z,63.25
2023-03-26T21:19:54.738Z,62.31
2023-03-26T21:22:36.593Z,62.72
2023-03-26T21:25:18.578Z,62.71
2023-03-26T21:28:05.963Z,63.36
2023-03-26T21:30:35.692Z,63.66
2023-03-26T21:33:05.353Z,63.76
2023-03-26T21:35:35.532Z,63.63
2023-03-26T21:38:06.495Z,63.76
2023-03-26T21:40:35.994Z,64.42
2023-03-26T21:43:06.972Z,64.22
2023-03-26T21:45:36.682Z,65.04
2023-03-26T21:48:06.272Z,65.28
2023-03-26T21:50:35.982Z,64.60
2023-03-26T21:53:05.191Z,64.47
2023-03-26T21:55:44.593Z,64.48
2023-03-26T21:58:32.618Z,64.54
2023-03-26T22:01:19.854Z,64.23
2023-03-26T22:04:04.752Z,64.25
2023-03-26T22:06:43.113Z,64.71
2023-03-26T22:09:15.019Z,64.83
2023-03-26T22:11:45.248Z,65.58
2023-03-26T22:14:15.054Z,65.44
2023-03-26T22:16:43.814Z,66.39
2023-03-26T22:19:13.721Z,66.52
2023-03-26T22:21:42.243Z,66.82
2023-03-26T22:24:10.666Z,66.95
2023-03-26T22:26:38.982Z,66.86
2023-03-26T22:29:08.213Z,67.77
2023-03-26T22:31:39.229Z,67.93
2023-03-26T22:34:07.942Z,67.73
2023-03-26T22:36:37.945Z,68.01
2023-03-26T22:39:08.277Z,69.08
2023-03-26T22:41:37.182Z,69.38
2023-03-26T22:44:19.121Z,69.31
2023-03-26T22:46:51.582Z,70.12
2023-03-26T22:49:20.279Z,70.62
2023-03-26T22:51:50.169Z,70.62
2023-03-26T22:54:21.490Z,70.16
2023-03-26T22:56:52.256Z,69.65
2023-03-26T22:59:20.697Z,69.44
2023-03-26T23:01:50.490Z,69.71
2023-03-26T23:04:31.502Z,69.96
2023-03-26T23:07:00.710Z,70.07
2023-03-26T23:09:29.548Z,69.90
2023-03-26T23:11:58.211Z,69.59
2023-03-26T23:14:28.600Z,69.86
2023-03-26T23:16:58.448Z,69.86
2023-03-26T23:19:26.843Z,68.32
2023-03-26T23:21:55.416Z,69.02
2023-03-26T23:24:26.577Z,68.45
2023-03-26T23:26:55.324Z,68.54
2023-03-26T23:29:23.806Z,68.77
2023-03-26T23:31:54.642Z,68.45
2023-03-26T23:34:25.149Z,68.11
2023-03-26T23:36:53.795Z,67.90
2023-03-26T23:39:22.271Z,68.76
2023-03-26T23:41:50.608Z,68.22
2023-03-26T23:44:19.457Z,68.43
2023-03-26T23:46:48.564Z,68.54
2023-03-26T23:49:16.968Z,68.08
2023-03-26T23:51:51.345Z,68.43
2023-03-26T23:54:21.552Z,68.43
2023-03-26T23:56:50.173Z,67.99
2023-03-26T23:59:19.095Z,67.32
